Davis, South Dakota
Current Conditions -  °F | °C
As of 2:56 PM on Friday 19 Dec 2014 (Local Time) from KFSD Reporting Station
Haze Haze  
Wind Chill: 19°   Ceiling: 700
Heat Index: 30°   Visibility: 6mi
Dew Point: 28°   Wind: 16mph
Humidity: 92%   Direction: 170°S
Pressure: 30.08"   Gusts: NA
Location:  43.26°N, 97°W
Report Text: KFSD 192056Z 17014KT 6SM BR OVC007 M01/M02 A3008 RMK AO2 SLP205 T10111022 56015
Loading
Personal Weather Stations






























Interactive Weather Map New forecast layout! Learn more

10-Day Weather Forecast

Advertisements
Track Severe Weather on mobile